الصفحة الرئيسية
METAR-TAF:

METAR-TAF

مطار :

مطار تشونغتشينغ جيانغبى الدولي

تشونغتشينغ, جمهورية الصين الشعبية

دائرة عرض: 29-31N, خط طول: 106-29E, ارتفاع: 351 متر

مراقبة الطقس الحالي

تاريخ ووقت الإصدار 1ساعة و 0 دقيقة قبل الساعة 00:00UTC
ريح 6 عقدة من الشمال
درجة الحرارة 26°درجة مئوية
الرطوبة 89%
ضغط 1003 hPa
الرؤية 10 كم أو أكثر
الغيوم لا تقل 1500 م ولا وجود لمزنة ركامية السحاب الأسود

METAR: ZUCK 240000Z 01003MPS CAVOK 26/24 Q1003 NOSIG

زمن: 09:00 (01:00 UTC)

توقعات

تاريخ ووقت الإصدار 5ساعات و 50 دقيقة قبل الساعة 19:10UTC
التوقعات صالحة من24 الساعة 00 UTC إلى 24 الساعة 24 UTC
ريح 6 عقدة من الشرق/الجنوب الشرقي
الرؤية: 6000 متر
غيوم متفرقة على ارتفاع 5000 قدم

TAF: ZUCK 231910Z 2400/2424 12003MPS 6000 SCT050 TX33/2408Z TN24/2422Z

أرصاد الطقس والتوقعات من أكثر من 4000 مطار (تقارير الطقس للمطار METAR والتنبؤ بالطقس بالمطارTAF).

المحطات المتاحة هي النقط الصفراء والحمراء على الخريطة.

حرك المؤشر فوق النقطة لمعرفة اسم المحطة.

ثم انقر لمعرفة أرصاد وتوقعات الطقس.

لتغيير الخارطة: اضغط على الأزرار الخضراء مع رمز الصليب الأسود للتكبير. على الزر الأخضر مع شرطة للتصغير، أو على الأسهم الخضراء للخرائط المجاورة.


METAR-TAF: